Orkun Kalkavan — V7JB8 — position and weather

sailwx.info

Track history (hours):
 
Tides and Currents Weather Stations Pressure Air Temp Water Temp Dewpoint Dewpoint Depression Visibility Wind Speed Wind Dir Waves Ship Positions

Orkun Kalkavan

Last reported at 2016-Dec-16 02:33 UTC. Time now 2017-Mar-26 20:51 UTC.
Position N 29°53' E 122°14'.
Warning: this ship's position is months out of date.

Type: Cargo ship. MMSI: 538007069.

Date/timePositionNaut miles runAvg speedWind from/ knotsBaromVisibWave heightAir tempDewpointWater temp
2016-Dec-16 02:33N 29°53' E 122°14'1 0.1
2016-Dec-15 20:03N 29°52' E 122°15'0 0.0
2016-Dec-15 19:27N 29°52' E 122°15'0 0.0
2016-Dec-15 18:33N 29°52' E 122°15'0 0.0
2016-Dec-15 17:33N 29°52' E 122°15'0 0.0
2016-Dec-15 16:33N 29°52' E 122°15'0 0.0
2016-Dec-15 15:33N 29°52' E 122°15'0 0.0
2016-Dec-15 14:33N 29°52' E 122°15'0 0.0
2016-Dec-15 13:33N 29°52' E 122°15'0 0.0
2016-Dec-15 12:33N 29°52' E 122°15'0 0.0
2016-Dec-15 11:33N 29°52' E 122°15'0 0.0
2016-Dec-15 10:33N 29°52' E 122°15'0 0.0
2016-Dec-15 09:21N 29°52' E 122°15'0 0.0
2016-Dec-15 08:33N 29°52' E 122°15'0 0.0
2016-Dec-15 07:33N 29°52' E 122°15'0 0.0
2016-Dec-15 06:27N 29°52' E 122°15'0 0.0
2016-Dec-15 05:27N 29°52' E 122°15'0 0.0
2016-Dec-15 04:33N 29°52' E 122°15'0 0.0
2016-Dec-15 03:33N 29°52' E 122°15'0 0.0
2016-Dec-15 01:24N 29°52' E 122°15'0 0.0
2016-Dec-15 00:30N 29°52' E 122°15'0 0.0
2016-Dec-14 23:30N 29°52' E 122°15'0 0.0
2016-Dec-14 22:24N 29°52' E 122°15'0 0.0
2016-Dec-14 21:24N 29°52' E 122°15'0 0.0
2016-Dec-14 20:24N 29°52' E 122°15'0 0.0
2016-Dec-14 19:24N 29°52' E 122°15'0 0.0
2016-Dec-14 18:18N 29°52' E 122°15'0 0.0
2016-Dec-14 17:30N 29°52' E 122°15'0 0.0
2016-Dec-14 16:30N 29°52' E 122°15'0 0.0
2016-Dec-14 15:30N 29°52' E 122°15'0 0.0
2016-Dec-14 14:30N 29°52' E 122°15'0 0.0
2016-Dec-14 13:12N 29°52' E 122°15'0 0.0
2016-Dec-14 12:30N 29°52' E 122°15'0 0.0
2016-Dec-14 11:24N 29°52' E 122°15'0 0.0
2016-Dec-14 10:30N 29°52' E 122°15'0 0.0
2016-Dec-14 09:24N 29°52' E 122°15'0 0.0
2016-Dec-14 08:24N 29°52' E 122°15'0 0.0
2016-Dec-13 02:24N 29°52' E 122°15'0 0.0
2016-Dec-13 01:30N 29°52' E 122°15'0 0.0
2016-Dec-12 03:09N 29°52' E 122°15'0 0.0
2016-Dec-12 02:32N 29°52' E 122°15'0 0.0
2016-Dec-12 01:32N 29°52' E 122°15'0 0.0
2016-Dec-10 03:25N 29°52' E 122°15'0 0.0
2016-Dec-10 02:31N 29°52' E 122°15'0 0.0
2016-Dec-10 01:31N 29°52' E 122°15'0 0.0
2016-Dec-09 08:27N 29°52' E 122°15'0 0.0
2016-Dec-09 07:27N 29°52' E 122°15'0 0.0
2016-Dec-09 06:29N 29°52' E 122°15'0 0.0
2016-Dec-09 05:29N 29°52' E 122°15'0 0.0
2016-Dec-09 04:32N 29°52' E 122°15'0 0.0
2016-Dec-09 03:33N 29°52' E 122°15'0 0.0
2016-Dec-09 02:32N 29°52' E 122°15'0 0.0
2016-Dec-08 03:33N 29°52' E 122°15'7 7.0
2016-Dec-08 02:33N 29°46' E 122°18'7 6.5
2016-Dec-08 01:33N 29°43' E 122°25'1515.1
2016-Dec-08 00:34N 29°42' E 122°42'36 3.2
2016-Dec-07 13:23N 29°54' E 123°22'34 1.2
2016-Dec-06 08:32N 29°39' E 122°47'1313.3
2016-Dec-06 07:33N 29°40' E 122°32'5 5.1
2016-Dec-06 06:32N 29°39' E 122°26'5 5.2
2016-Dec-06 05:33N 29°43' E 122°22'1010.6
2016-Dec-06 04:33N 29°50' E 122°13'2 2.1
2016-Dec-06 03:33N 29°52' E 122°14'  
Track history (hours):
 
Tides and Currents Weather Stations Pressure Air Temp Water Temp Dewpoint Dewpoint Depression Visibility Wind Speed Wind Dir Waves Ship Positions

Orkun Kalkavan

Last reported at 2016-Dec-16 02:33 UTC. Time now 2017-Mar-26 20:51 UTC.
Position N 29°53' E 122°14'.
Warning: this ship's position is months out of date.

Type: Cargo ship. MMSI: 538007069.

Date/timePositionNaut miles runAvg speedWind from/ knotsBaromVisibWave heightAir tempDewpointWater temp
2016-Dec-16 02:33N 29°53' E 122°14'1 0.1
2016-Dec-15 20:03N 29°52' E 122°15'0 0.0
2016-Dec-15 19:27N 29°52' E 122°15'0 0.0
2016-Dec-15 18:33N 29°52' E 122°15'0 0.0
2016-Dec-15 17:33N 29°52' E 122°15'0 0.0
2016-Dec-15 16:33N 29°52' E 122°15'0 0.0
2016-Dec-15 15:33N 29°52' E 122°15'0 0.0
2016-Dec-15 14:33N 29°52' E 122°15'0 0.0
2016-Dec-15 13:33N 29°52' E 122°15'0 0.0
2016-Dec-15 12:33N 29°52' E 122°15'0 0.0
2016-Dec-15 11:33N 29°52' E 122°15'0 0.0
2016-Dec-15 10:33N 29°52' E 122°15'0 0.0
2016-Dec-15 09:21N 29°52' E 122°15'0 0.0
2016-Dec-15 08:33N 29°52' E 122°15'0 0.0
2016-Dec-15 07:33N 29°52' E 122°15'0 0.0
2016-Dec-15 06:27N 29°52' E 122°15'0 0.0
2016-Dec-15 05:27N 29°52' E 122°15'0 0.0
2016-Dec-15 04:33N 29°52' E 122°15'0 0.0
2016-Dec-15 03:33N 29°52' E 122°15'0 0.0
2016-Dec-15 01:24N 29°52' E 122°15'0 0.0
2016-Dec-15 00:30N 29°52' E 122°15'0 0.0
2016-Dec-14 23:30N 29°52' E 122°15'0 0.0
2016-Dec-14 22:24N 29°52' E 122°15'0 0.0
2016-Dec-14 21:24N 29°52' E 122°15'0 0.0
2016-Dec-14 20:24N 29°52' E 122°15'0 0.0
2016-Dec-14 19:24N 29°52' E 122°15'0 0.0
2016-Dec-14 18:18N 29°52' E 122°15'0 0.0
2016-Dec-14 17:30N 29°52' E 122°15'0 0.0
2016-Dec-14 16:30N 29°52' E 122°15'0 0.0
2016-Dec-14 15:30N 29°52' E 122°15'0 0.0
2016-Dec-14 14:30N 29°52' E 122°15'0 0.0
2016-Dec-14 13:12N 29°52' E 122°15'0 0.0
2016-Dec-14 12:30N 29°52' E 122°15'0 0.0
2016-Dec-14 11:24N 29°52' E 122°15'0 0.0
2016-Dec-14 10:30N 29°52' E 122°15'0 0.0
2016-Dec-14 09:24N 29°52' E 122°15'0 0.0
2016-Dec-14 08:24N 29°52' E 122°15'0 0.0
2016-Dec-13 02:24N 29°52' E 122°15'0 0.0
2016-Dec-13 01:30N 29°52' E 122°15'0 0.0
2016-Dec-12 03:09N 29°52' E 122°15'0 0.0
2016-Dec-12 02:32N 29°52' E 122°15'0 0.0
2016-Dec-12 01:32N 29°52' E 122°15'0 0.0
2016-Dec-10 03:25N 29°52' E 122°15'0 0.0
2016-Dec-10 02:31N 29°52' E 122°15'0 0.0
2016-Dec-10 01:31N 29°52' E 122°15'0 0.0
2016-Dec-09 08:27N 29°52' E 122°15'0 0.0
2016-Dec-09 07:27N 29°52' E 122°15'0 0.0
2016-Dec-09 06:29N 29°52' E 122°15'0 0.0
2016-Dec-09 05:29N 29°52' E 122°15'0 0.0
2016-Dec-09 04:32N 29°52' E 122°15'0 0.0
2016-Dec-09 03:33N 29°52' E 122°15'0 0.0
2016-Dec-09 02:32N 29°52' E 122°15'0 0.0
2016-Dec-08 03:33N 29°52' E 122°15'7 7.0
2016-Dec-08 02:33N 29°46' E 122°18'7 6.5
2016-Dec-08 01:33N 29°43' E 122°25'1515.1
2016-Dec-08 00:34N 29°42' E 122°42'36 3.2
2016-Dec-07 13:23N 29°54' E 123°22'34 1.2
2016-Dec-06 08:32N 29°39' E 122°47'1313.3
2016-Dec-06 07:33N 29°40' E 122°32'5 5.1
2016-Dec-06 06:32N 29°39' E 122°26'5 5.2
2016-Dec-06 05:33N 29°43' E 122°22'1010.6
2016-Dec-06 04:33N 29°50' E 122°13'2 2.1
2016-Dec-06 03:33N 29°52' E 122°14'  

Dump ship's entire track history